Terminal Aerodrome Forecast
Issued by NWS St Louis, MO

Home | Current Version | Previous Version | Text Only | Print | Product List | Glossary On
Versions: 1 2 3 4 5 6 7 8 9 10 11 12 13 14 15 16 17 18 19 20 21 22 23 24 25 26 27 28 29
106
FTUS43 KLSX 221129
TAFCOU
TAF
KCOU 221129Z 2212/2312 17005KT 1/4SM FG VV001
     FM221400 20006KT 1/2SM FG BKN003
     FM221500 20007KT 2SM BR BKN010
     FM221600 20011G17KT P6SM FEW150
     FM230000 21005KT P6SM FEW250
     FM231000 07004KT P6SM SCT200=

USA.gov is the U.S. government's official web portal to all federal, state and local government web resources and services.